Terminal Aerodrome Forecast
Issued by NWS

Home | Current Version | Previous Version | Text Only | Print | Product List | Glossary On
Versions: 1 2 3 4 5 6 7 8 9 10 11 12 13 14 15 16 17 18 19 20 21 22 23 24 25 26
000
FTUS43 KBIS 190600 AAA
TAFMOT
TAF AMD
KMOT 190648Z 1907/2006 12003KT 2SM BR OVC004
      TEMPO 1907/1908 1/2SM FG OVC003
     FM190900 19004KT 1/2SM FG OVC003
      TEMPO 1909/1912 1/4SM FZFG OVC002
     FM191600 20003KT P6SM SCT008 BKN012
     FM191900 VRB03KT P6SM SCT100=

USA.gov is the U.S. government's official web portal to all federal, state and local government web resources and services.